CMA CGM Kingfish — A8YW9 — position and weather

sailwx.info

Track history (hours):
 
Tides and Currents Weather Stations Pressure Air Temp Water Temp Dewpoint Dewpoint Depression Visibility Wind Speed Wind Dir Waves Ship Positions

CMA CGM Kingfish

Last reported at 2015-Jan-29 11:04 UTC. Time now 2015-Jan-29 12:24 UTC.
Position N 31°59' W 080°26'.

Length 294 m; draft 11.9 m.

Type: Ship (hazmat cat A). MMSI: 636015147.

Date/timePositionNaut miles runAvg speedWind from/ knotsBaromVisibWave heightAir tempDewpointWater temp
2015-Jan-29 11:04N 31°59' W 080°26'510.0
2015-Jan-29 10:31N 31°58' W 080°33'9 9.7
2015-Jan-29 09:33N 31°58' W 080°44'1110.8
2015-Jan-29 08:33N 32°02' W 080°55'7 7.4
2015-Jan-29 07:33N 32°05' W 081°04'5 4.9
2015-Jan-29 06:33N 32°08' W 081°08'1 0.5
2015-Jan-29 05:33N 32°08' W 081°09'0 0.0
2015-Jan-29 04:33N 32°08' W 081°09'0 0.0
2015-Jan-29 03:33N 32°08' W 081°09'0 0.0
2015-Jan-29 02:33N 32°08' W 081°09'0 0.0
2015-Jan-29 01:33N 32°08' W 081°09'0 0.0
2015-Jan-29 00:33N 32°08' W 081°09'0 0.0
2015-Jan-28 23:33N 32°08' W 081°09'0 0.0
2015-Jan-28 22:33N 32°08' W 081°09'0 0.0
2015-Jan-28 21:33N 32°08' W 081°09'0 0.0
2015-Jan-28 20:33N 32°08' W 081°09'0 0.0
2015-Jan-28 19:33N 32°08' W 081°09'0 0.0
2015-Jan-28 18:33N 32°08' W 081°09'0 0.0
2015-Jan-28 17:33N 32°08' W 081°09'0 0.0
2015-Jan-28 16:33N 32°08' W 081°09'0 0.0
2015-Jan-28 15:33N 32°08' W 081°09'0 0.0
2015-Jan-28 14:33N 32°08' W 081°09'0 0.0
2015-Jan-28 13:33N 32°08' W 081°09'0 0.0
2015-Jan-28 12:33N 32°08' W 081°09'0 0.0
2015-Jan-28 11:34N 32°08' W 081°09'0 0.0
2015-Jan-28 10:33N 32°08' W 081°09'1 0.9
2015-Jan-28 09:33N 32°07' W 081°08'6 5.5
2015-Jan-28 08:33N 32°05' W 081°02'8 8.5
2015-Jan-28 07:33N 32°02' W 080°53'1111.1
2015-Jan-28 06:33N 31°58' W 080°41'8 7.0
2015-Jan-28 05:25N 31°58' W 080°31'  
2015-Jan-25 10:14N 38°48' W 074°00'5118.3
2015-Jan-25 07:27N 39°39' W 073°52'4514.1
2015-Jan-25 04:14N 40°24' W 073°49'6 8.8
2015-Jan-25 03:33N 40°29' W 073°54'1111.2
2015-Jan-25 02:33N 40°38' W 074°03'5 4.6
2015-Jan-25 01:34N 40°40' W 074°09'0 0.1
2015-Jan-25 00:32N 40°40' W 074°09'0 0.0
2015-Jan-24 23:32N 40°40' W 074°09'0 0.0
2015-Jan-24 22:32N 40°40' W 074°09'0 0.0
2015-Jan-24 21:32N 40°40' W 074°09'0 0.0
2015-Jan-24 20:32N 40°40' W 074°09'0 0.0
2015-Jan-24 19:32N 40°40' W 074°09'0 0.0
2015-Jan-24 18:32N 40°40' W 074°09'0 0.0
2015-Jan-24 17:29N 40°40' W 074°09'0 0.0
2015-Jan-24 16:26N 40°40' W 074°09'0 0.0
2015-Jan-24 15:32N 40°40' W 074°09'0 0.0
2015-Jan-24 14:32N 40°40' W 074°09'0 0.0
2015-Jan-24 13:32N 40°40' W 074°09'0 0.0
2015-Jan-24 12:32N 40°40' W 074°09'0 0.0
2015-Jan-24 11:32N 40°40' W 074°09'0 0.0
2015-Jan-24 10:20N 40°40' W 074°09'0 0.0
2015-Jan-24 09:20N 40°40' W 074°09'0 0.0
2015-Jan-24 08:20N 40°40' W 074°09'0 0.0
2015-Jan-24 07:26N 40°40' W 074°09'0 0.0
2015-Jan-24 06:32N 40°40' W 074°09'0 0.0
2015-Jan-24 05:32N 40°40' W 074°09'0 0.0
2015-Jan-24 04:32N 40°40' W 074°09'0 0.0
2015-Jan-24 03:32N 40°40' W 074°09'0 0.0
2015-Jan-24 02:32N 40°40' W 074°09'0 0.0
2015-Jan-24 01:32N 40°40' W 074°09'0 0.0
2015-Jan-24 00:32N 40°40' W 074°09'0 0.2
2015-Jan-23 23:33N 40°39' W 074°09'5 4.9
2015-Jan-23 22:33N 40°37' W 074°03'1211.4
2015-Jan-23 21:32N 40°28' W 073°53'5 5.2
2015-Jan-23 20:32N 40°29' W 073°46'0 0.0
2015-Jan-23 19:32N 40°29' W 073°46'3 3.4
2015-Jan-23 18:33N 40°26' W 073°44'10 9.8
2015-Jan-23 17:33N 40°20' W 073°34'1515.3
2015-Jan-23 16:33N 40°11' W 073°17'1919.1
2015-Jan-23 15:33N 40°04' W 072°54'1919.3
2015-Jan-23 14:33N 39°57' W 072°30'2619.5
2015-Jan-23 13:13N 39°49' W 071°58'1319.3
2015-Jan-23 12:33N 39°45' W 071°42'2218.9
2015-Jan-23 11:23N 39°37' W 071°15'1818.4
2015-Jan-23 10:24N 39°32' W 070°52'  
Track history (hours):
 
Tides and Currents Weather Stations Pressure Air Temp Water Temp Dewpoint Dewpoint Depression Visibility Wind Speed Wind Dir Waves Ship Positions

CMA CGM Kingfish

Last reported at 2015-Jan-29 11:04 UTC. Time now 2015-Jan-29 12:24 UTC.
Position N 31°59' W 080°26'.

Length 294 m; draft 11.9 m.

Type: Ship (hazmat cat A). MMSI: 636015147.

Date/timePositionNaut miles runAvg speedWind from/ knotsBaromVisibWave heightAir tempDewpointWater temp
2015-Jan-29 11:04N 31°59' W 080°26'510.0
2015-Jan-29 10:31N 31°58' W 080°33'9 9.7
2015-Jan-29 09:33N 31°58' W 080°44'1110.8
2015-Jan-29 08:33N 32°02' W 080°55'7 7.4
2015-Jan-29 07:33N 32°05' W 081°04'5 4.9
2015-Jan-29 06:33N 32°08' W 081°08'1 0.5
2015-Jan-29 05:33N 32°08' W 081°09'0 0.0
2015-Jan-29 04:33N 32°08' W 081°09'0 0.0
2015-Jan-29 03:33N 32°08' W 081°09'0 0.0
2015-Jan-29 02:33N 32°08' W 081°09'0 0.0
2015-Jan-29 01:33N 32°08' W 081°09'0 0.0
2015-Jan-29 00:33N 32°08' W 081°09'0 0.0
2015-Jan-28 23:33N 32°08' W 081°09'0 0.0
2015-Jan-28 22:33N 32°08' W 081°09'0 0.0
2015-Jan-28 21:33N 32°08' W 081°09'0 0.0
2015-Jan-28 20:33N 32°08' W 081°09'0 0.0
2015-Jan-28 19:33N 32°08' W 081°09'0 0.0
2015-Jan-28 18:33N 32°08' W 081°09'0 0.0
2015-Jan-28 17:33N 32°08' W 081°09'0 0.0
2015-Jan-28 16:33N 32°08' W 081°09'0 0.0
2015-Jan-28 15:33N 32°08' W 081°09'0 0.0
2015-Jan-28 14:33N 32°08' W 081°09'0 0.0
2015-Jan-28 13:33N 32°08' W 081°09'0 0.0
2015-Jan-28 12:33N 32°08' W 081°09'0 0.0
2015-Jan-28 11:34N 32°08' W 081°09'0 0.0
2015-Jan-28 10:33N 32°08' W 081°09'1 0.9
2015-Jan-28 09:33N 32°07' W 081°08'6 5.5
2015-Jan-28 08:33N 32°05' W 081°02'8 8.5
2015-Jan-28 07:33N 32°02' W 080°53'1111.1
2015-Jan-28 06:33N 31°58' W 080°41'8 7.0
2015-Jan-28 05:25N 31°58' W 080°31'  
2015-Jan-25 10:14N 38°48' W 074°00'5118.3
2015-Jan-25 07:27N 39°39' W 073°52'4514.1
2015-Jan-25 04:14N 40°24' W 073°49'6 8.8
2015-Jan-25 03:33N 40°29' W 073°54'1111.2
2015-Jan-25 02:33N 40°38' W 074°03'5 4.6
2015-Jan-25 01:34N 40°40' W 074°09'0 0.1
2015-Jan-25 00:32N 40°40' W 074°09'0 0.0
2015-Jan-24 23:32N 40°40' W 074°09'0 0.0
2015-Jan-24 22:32N 40°40' W 074°09'0 0.0
2015-Jan-24 21:32N 40°40' W 074°09'0 0.0
2015-Jan-24 20:32N 40°40' W 074°09'0 0.0
2015-Jan-24 19:32N 40°40' W 074°09'0 0.0
2015-Jan-24 18:32N 40°40' W 074°09'0 0.0
2015-Jan-24 17:29N 40°40' W 074°09'0 0.0
2015-Jan-24 16:26N 40°40' W 074°09'0 0.0
2015-Jan-24 15:32N 40°40' W 074°09'0 0.0
2015-Jan-24 14:32N 40°40' W 074°09'0 0.0
2015-Jan-24 13:32N 40°40' W 074°09'0 0.0
2015-Jan-24 12:32N 40°40' W 074°09'0 0.0
2015-Jan-24 11:32N 40°40' W 074°09'0 0.0
2015-Jan-24 10:20N 40°40' W 074°09'0 0.0
2015-Jan-24 09:20N 40°40' W 074°09'0 0.0
2015-Jan-24 08:20N 40°40' W 074°09'0 0.0
2015-Jan-24 07:26N 40°40' W 074°09'0 0.0
2015-Jan-24 06:32N 40°40' W 074°09'0 0.0
2015-Jan-24 05:32N 40°40' W 074°09'0 0.0
2015-Jan-24 04:32N 40°40' W 074°09'0 0.0
2015-Jan-24 03:32N 40°40' W 074°09'0 0.0
2015-Jan-24 02:32N 40°40' W 074°09'0 0.0
2015-Jan-24 01:32N 40°40' W 074°09'0 0.0
2015-Jan-24 00:32N 40°40' W 074°09'0 0.2
2015-Jan-23 23:33N 40°39' W 074°09'5 4.9
2015-Jan-23 22:33N 40°37' W 074°03'1211.4
2015-Jan-23 21:32N 40°28' W 073°53'5 5.2
2015-Jan-23 20:32N 40°29' W 073°46'0 0.0
2015-Jan-23 19:32N 40°29' W 073°46'3 3.4
2015-Jan-23 18:33N 40°26' W 073°44'10 9.8
2015-Jan-23 17:33N 40°20' W 073°34'1515.3
2015-Jan-23 16:33N 40°11' W 073°17'1919.1
2015-Jan-23 15:33N 40°04' W 072°54'1919.3
2015-Jan-23 14:33N 39°57' W 072°30'2619.5
2015-Jan-23 13:13N 39°49' W 071°58'1319.3
2015-Jan-23 12:33N 39°45' W 071°42'2218.9
2015-Jan-23 11:23N 39°37' W 071°15'1818.4
2015-Jan-23 10:24N 39°32' W 070°52'  

Dump ship's entire track history